sensor_id;sensor_type;location;lat;lon;timestamp;pressure;altitude;pressure_sealevel;temperature;humidity
13414;BME280;6778;48.136;11.386;2023-04-01T00:00:55;94134.69;;;9.86;67.89
13414;BME280;6778;48.136;11.386;2023-04-01T00:03:26;94134.94;;;9.84;68.04
13414;BME280;6778;48.136;11.386;2023-04-01T00:06:01;94142.72;;;9.79;67.95
13414;BME280;6778;48.136;11.386;2023-04-01T00:08:32;94135.91;;;9.78;67.84
13414;BME280;6778;48.136;11.386;2023-04-01T00:11:02;94130.19;;;9.81;68.09
13414;BME280;6778;48.136;11.386;2023-04-01T00:13:32;94134.06;;;9.79;68.00
13414;BME280;6778;48.136;11.386;2023-04-01T00:16:03;94124.91;;;9.76;68.19
13414;BME280;6778;48.136;11.386;2023-04-01T00:18:48;94121.97;;;9.73;68.18
13414;BME280;6778;48.136;11.386;2023-04-01T00:21:22;94123.28;;;9.75;68.26
13414;BME280;6778;48.136;11.386;2023-04-01T00:23:52;94111.13;;;9.64;68.08
13414;BME280;6778;48.136;11.386;2023-04-01T00:26:23;94115.97;;;9.55;68.58
13414;BME280;6778;48.136;11.386;2023-04-01T00:28:53;94105.75;;;9.54;68.79
13414;BME280;6778;48.136;11.386;2023-04-01T00:31:23;94120.38;;;9.55;68.97
13414;BME280;6778;48.136;11.386;2023-04-01T00:33:54;94119.75;;;9.48;69.06
13414;BME280;6778;48.136;11.386;2023-04-01T00:36:27;94118.44;;;9.45;69.30
13414;BME280;6778;48.136;11.386;2023-04-01T00:38:57;94117.09;;;9.43;69.25
13414;BME280;6778;48.136;11.386;2023-04-01T00:41:28;94112.91;;;9.42;69.56
13414;BME280;6778;48.136;11.386;2023-04-01T00:44:18;94115.50;;;9.42;69.63
13414;BME280;6778;48.136;11.386;2023-04-01T00:46:48;94119.13;;;9.41;69.70
13414;BME280;6778;48.136;11.386;2023-04-01T00:49:25;94112.56;;;9.38;69.92
13414;BME280;6778;48.136;11.386;2023-04-01T00:52:02;94111.28;;;9.41;69.97
13414;BME280;6778;48.136;11.386;2023-04-01T00:54:38;94114.47;;;9.43;69.75
13414;BME280;6778;48.136;11.386;2023-04-01T00:57:14;94111.63;;;9.44;69.69
13414;BME280;6778;48.136;11.386;2023-04-01T00:59:48;94112.66;;;9.43;69.70
13414;BME280;6778;48.136;11.386;2023-04-01T01:02:21;94114.78;;;9.46;69.70
13414;BME280;6778;48.136;11.386;2023-04-01T01:04:52;94110.66;;;9.50;69.68
13414;BME280;6778;48.136;11.386;2023-04-01T01:07:37;94109.88;;;9.50;69.51
13414;BME280;6778;48.136;11.386;2023-04-01T01:10:18;94112.88;;;9.58;69.42
13414;BME280;6778;48.136;11.386;2023-04-01T01:12:58;94114.69;;;9.58;69.18
13414;BME280;6778;48.136;11.386;2023-04-01T01:15:37;94110.59;;;9.62;69.09
13414;BME280;6778;48.136;11.386;2023-04-01T01:18:18;94108.19;;;9.61;68.78
13414;BME280;6778;48.136;11.386;2023-04-01T01:24:32;94106.19;;;9.68;68.78
13414;BME280;6778;48.136;11.386;2023-04-01T01:27:11;94108.81;;;9.68;68.62
13414;BME280;6778;48.136;11.386;2023-04-01T01:30:04;94096.53;;;9.68;68.39
13414;BME280;6778;48.136;11.386;2023-04-01T01:33:09;94101.75;;;9.68;68.52
13414;BME280;6778;48.136;11.386;2023-04-01T01:35:50;94097.03;;;9.65;68.61
13414;BME280;6778;48.136;11.386;2023-04-01T01:38:26;94100.66;;;9.64;68.52
13414;BME280;6778;48.136;11.386;2023-04-01T01:41:05;94095.97;;;9.66;68.25
13414;BME280;6778;48.136;11.386;2023-04-01T01:43:42;94089.41;;;9.64;68.43
13414;BME280;6778;48.136;11.386;2023-04-01T01:46:19;94089.66;;;9.62;68.43
13414;BME280;6778;48.136;11.386;2023-04-01T01:48:52;94084.28;;;9.69;68.44
13414;BME280;6778;48.136;11.386;2023-04-01T01:51:27;94081.88;;;9.67;68.26
13414;BME280;6778;48.136;11.386;2023-04-01T01:54:00;94092.91;;;9.69;67.90
13414;BME280;6778;48.136;11.386;2023-04-01T01:56:34;94099.13;;;9.68;68.02
13414;BME280;6778;48.136;11.386;2023-04-01T01:59:09;94092.72;;;9.76;67.88
13414;BME280;6778;48.136;11.386;2023-04-01T02:01:48;94082.28;;;9.76;67.73
13414;BME280;6778;48.136;11.386;2023-04-01T02:04:22;94099.53;;;9.77;67.56
13414;BME280;6778;48.136;11.386;2023-04-01T02:06:59;94106.81;;;9.75;67.43
13414;BME280;6778;48.136;11.386;2023-04-01T02:09:31;94101.03;;;9.73;67.23
13414;BME280;6778;48.136;11.386;2023-04-01T02:12:06;94103.19;;;9.76;67.00
13414;BME280;6778;48.136;11.386;2023-04-01T02:14:44;94095.81;;;9.73;66.89
13414;BME280;6778;48.136;11.386;2023-04-01T02:17:18;94104.69;;;9.72;66.97
13414;BME280;6778;48.136;11.386;2023-04-01T02:19:54;94104.38;;;9.68;67.05
13414;BME280;6778;48.136;11.386;2023-04-01T02:22:33;94101.13;;;9.61;66.91
13414;BME280;6778;48.136;11.386;2023-04-01T02:25:07;94115.81;;;9.62;67.10
13414;BME280;6778;48.136;11.386;2023-04-01T02:27:39;94107.16;;;9.62;67.33
13414;BME280;6778;48.136;11.386;2023-04-01T02:30:12;94103.81;;;9.66;67.59
13414;BME280;6778;48.136;11.386;2023-04-01T02:32:43;94113.81;;;9.69;67.24
13414;BME280;6778;48.136;11.386;2023-04-01T02:35:15;94105.19;;;9.69;67.22
13414;BME280;6778;48.136;11.386;2023-04-01T02:37:50;94113.50;;;9.66;67.06
13414;BME280;6778;48.136;11.386;2023-04-01T02:40:25;94112.72;;;9.65;67.16
13414;BME280;6778;48.136;11.386;2023-04-01T02:42:55;94120.53;;;9.65;67.11
13414;BME280;6778;48.136;11.386;2023-04-01T02:45:25;94121.25;;;9.61;67.15
13414;BME280;6778;48.136;11.386;2023-04-01T02:47:57;94123.66;;;9.62;67.03
13414;BME280;6778;48.136;11.386;2023-04-01T02:50:27;94120.47;;;9.60;67.09
13414;BME280;6778;48.136;11.386;2023-04-01T02:53:00;94123.00;;;9.55;67.10
13414;BME280;6778;48.136;11.386;2023-04-01T02:55:32;94120.97;;;9.57;67.26
13414;BME280;6778;48.136;11.386;2023-04-01T02:58:05;94124.63;;;9.56;67.37
13414;BME280;6778;48.136;11.386;2023-04-01T03:00:36;94124.81;;;9.54;67.51
13414;BME280;6778;48.136;11.386;2023-04-01T03:03:06;94119.06;;;9.52;67.27
13414;BME280;6778;48.136;11.386;2023-04-01T03:05:39;94122.94;;;9.50;67.37
13414;BME280;6778;48.136;11.386;2023-04-01T03:08:11;94127.38;;;9.49;67.48
13414;BME280;6778;48.136;11.386;2023-04-01T03:10:43;94127.84;;;9.46;67.42
13414;BME280;6778;48.136;11.386;2023-04-01T03:13:15;94125.00;;;9.48;67.51
13414;BME280;6778;48.136;11.386;2023-04-01T03:15:45;94127.69;;;9.53;67.58
13414;BME280;6778;48.136;11.386;2023-04-01T03:18:16;94125.00;;;9.48;67.18
13414;BME280;6778;48.136;11.386;2023-04-01T03:20:49;94122.63;;;9.46;67.45
13414;BME280;6778;48.136;11.386;2023-04-01T03:23:22;94128.72;;;9.52;67.42
13414;BME280;6778;48.136;11.386;2023-04-01T03:25:52;94130.94;;;9.43;67.01
13414;BME280;6778;48.136;11.386;2023-04-01T03:28:22;94138.56;;;9.45;67.29
13414;BME280;6778;48.136;11.386;2023-04-01T03:30:52;94135.06;;;9.39;67.16
13414;BME280;6778;48.136;11.386;2023-04-01T03:33:23;94141.00;;;9.35;67.54
13414;BME280;6778;48.136;11.386;2023-04-01T03:35:53;94138.94;;;9.37;67.72
13414;BME280;6778;48.136;11.386;2023-04-01T03:38:27;94133.22;;;9.40;67.55
13414;BME280;6778;48.136;11.386;2023-04-01T03:40:57;94141.88;;;9.40;67.38
13414;BME280;6778;48.136;11.386;2023-04-01T03:43:27;94147.34;;;9.39;67.53
13414;BME280;6778;48.136;11.386;2023-04-01T03:45:58;94128.25;;;9.38;67.46
13414;BME280;6778;48.136;11.386;2023-04-01T03:48:29;94131.34;;;9.35;67.68
13414;BME280;6778;48.136;11.386;2023-04-01T03:50:59;94142.59;;;9.36;67.78
13414;BME280;6778;48.136;11.386;2023-04-01T03:53:32;94134.66;;;9.30;67.63
13414;BME280;6778;48.136;11.386;2023-04-01T03:56:06;94145.03;;;9.25;67.76
13414;BME280;6778;48.136;11.386;2023-04-01T03:58:37;94143.13;;;9.21;68.33
13414;BME280;6778;48.136;11.386;2023-04-01T04:01:18;94149.63;;;9.18;68.31
13414;BME280;6778;48.136;11.386;2023-04-01T04:03:51;94144.16;;;9.20;68.64
13414;BME280;6778;48.136;11.386;2023-04-01T04:06:23;94156.34;;;9.14;68.64
13414;BME280;6778;48.136;11.386;2023-04-01T04:08:56;94151.84;;;9.10;68.79
13414;BME280;6778;48.136;11.386;2023-04-01T04:11:31;94157.38;;;9.13;69.20
13414;BME280;6778;48.136;11.386;2023-04-01T04:14:02;94155.00;;;9.12;69.12
13414;BME280;6778;48.136;11.386;2023-04-01T04:16:34;94157.06;;;9.10;69.21
13414;BME280;6778;48.136;11.386;2023-04-01T04:19:06;94149.31;;;9.15;69.57
13414;BME280;6778;48.136;11.386;2023-04-01T04:21:36;94155.53;;;9.14;69.59
13414;BME280;6778;48.136;11.386;2023-04-01T04:24:09;94146.91;;;9.13;69.75
13414;BME280;6778;48.136;11.386;2023-04-01T04:27:05;94143.75;;;9.11;70.09
13414;BME280;6778;48.136;11.386;2023-04-01T04:29:43;94143.06;;;9.16;69.87
13414;BME280;6778;48.136;11.386;2023-04-01T04:32:13;94153.28;;;9.17;70.00
13414;BME280;6778;48.136;11.386;2023-04-01T04:34:43;94164.28;;;9.19;69.66
13414;BME280;6778;48.136;11.386;2023-04-01T04:37:13;94157.00;;;9.21;69.92
13414;BME280;6778;48.136;11.386;2023-04-01T04:39:46;94159.63;;;9.21;69.81
13414;BME280;6778;48.136;11.386;2023-04-01T04:42:18;94161.75;;;9.24;69.59
13414;BME280;6778;48.136;11.386;2023-04-01T04:44:51;94164.03;;;9.21;69.37
13414;BME280;6778;48.136;11.386;2023-04-01T04:47:22;94164.59;;;9.23;69.37
13414;BME280;6778;48.136;11.386;2023-04-01T04:49:52;94167.31;;;9.28;69.50
13414;BME280;6778;48.136;11.386;2023-04-01T04:52:22;94171.34;;;9.36;69.33
13414;BME280;6778;48.136;11.386;2023-04-01T04:54:55;94169.28;;;9.38;69.02
13414;BME280;6778;48.136;11.386;2023-04-01T04:57:25;94170.06;;;9.38;68.75
13414;BME280;6778;48.136;11.386;2023-04-01T04:59:55;94168.16;;;9.34;68.66
13414;BME280;6778;48.136;11.386;2023-04-01T05:02:43;94181.31;;;9.39;68.73
13414;BME280;6778;48.136;11.386;2023-04-01T05:05:13;94173.00;;;9.42;68.62
13414;BME280;6778;48.136;11.386;2023-04-01T05:07:44;94167.06;;;9.46;68.34
13414;BME280;6778;48.136;11.386;2023-04-01T05:10:17;94169.91;;;9.45;67.72
13414;BME280;6778;48.136;11.386;2023-04-01T05:12:48;94176.56;;;9.36;67.69
13414;BME280;6778;48.136;11.386;2023-04-01T05:15:21;94171.00;;;9.32;67.72
13414;BME280;6778;48.136;11.386;2023-04-01T05:17:52;94171.25;;;9.30;67.86
13414;BME280;6778;48.136;11.386;2023-04-01T05:20:22;94166.47;;;9.27;67.88
13414;BME280;6778;48.136;11.386;2023-04-01T05:22:55;94165.78;;;9.32;67.65
13414;BME280;6778;48.136;11.386;2023-04-01T05:25:28;94167.94;;;9.35;67.29
13414;BME280;6778;48.136;11.386;2023-04-01T05:28:03;94172.34;;;9.35;67.03
13414;BME280;6778;48.136;11.386;2023-04-01T05:30:34;94174.97;;;9.35;67.10
13414;BME280;6778;48.136;11.386;2023-04-01T05:33:22;94183.94;;;9.39;67.02
13414;BME280;6778;48.136;11.386;2023-04-01T05:35:53;94172.44;;;9.40;66.86
13414;BME280;6778;48.136;11.386;2023-04-01T05:38:23;94166.91;;;9.53;66.74
13414;BME280;6778;48.136;11.386;2023-04-01T05:41:01;94167.78;;;9.58;66.30
13414;BME280;6778;48.136;11.386;2023-04-01T05:43:36;94153.25;;;9.68;66.15
13414;BME280;6778;48.136;11.386;2023-04-01T05:46:44;94165.38;;;9.74;65.62
13414;BME280;6778;48.136;11.386;2023-04-01T05:49:19;94163.56;;;9.74;65.71
13414;BME280;6778;48.136;11.386;2023-04-01T05:51:50;94162.91;;;9.84;65.32
13414;BME280;6778;48.136;11.386;2023-04-01T05:54:22;94169.47;;;9.87;65.00
13414;BME280;6778;48.136;11.386;2023-04-01T05:56:55;94171.13;;;9.93;64.82
13414;BME280;6778;48.136;11.386;2023-04-01T05:59:25;94164.22;;;10.03;64.46
13414;BME280;6778;48.136;11.386;2023-04-01T06:01:56;94161.38;;;10.05;64.00
13414;BME280;6778;48.136;11.386;2023-04-01T06:04:34;94164.06;;;10.10;63.82
13414;BME280;6778;48.136;11.386;2023-04-01T06:07:11;94161.03;;;10.18;63.76
13414;BME280;6778;48.136;11.386;2023-04-01T06:09:43;94166.78;;;10.20;63.31
13414;BME280;6778;48.136;11.386;2023-04-01T06:12:32;94168.72;;;10.25;63.09
13414;BME280;6778;48.136;11.386;2023-04-01T06:15:20;94159.13;;;10.30;63.01
13414;BME280;6778;48.136;11.386;2023-04-01T06:18:10;94166.03;;;10.42;62.81
13414;BME280;6778;48.136;11.386;2023-04-01T06:20:52;94166.72;;;10.54;62.09
13414;BME280;6778;48.136;11.386;2023-04-01T06:23:53;94168.16;;;10.66;61.63
13414;BME280;6778;48.136;11.386;2023-04-01T06:26:34;94163.84;;;10.77;61.12
13414;BME280;6778;48.136;11.386;2023-04-01T06:29:26;94163.22;;;10.92;60.58
13414;BME280;6778;48.136;11.386;2023-04-01T06:32:34;94155.50;;;11.07;59.80
13414;BME280;6778;48.136;11.386;2023-04-01T06:35:20;94170.03;;;11.20;59.20
13414;BME280;6778;48.136;11.386;2023-04-01T06:38:17;94171.88;;;11.52;58.51
13414;BME280;6778;48.136;11.386;2023-04-01T06:41:14;94168.88;;;11.75;57.60
13414;BME280;6778;48.136;11.386;2023-04-01T06:43:59;94163.81;;;11.95;57.05
13414;BME280;6778;48.136;11.386;2023-04-01T06:47:01;94171.59;;;12.33;55.76
13414;BME280;6778;48.136;11.386;2023-04-01T06:49:59;94166.00;;;12.71;54.70
13414;BME280;6778;48.136;11.386;2023-04-01T06:53:01;94162.41;;;12.98;53.91
13414;BME280;6778;48.136;11.386;2023-04-01T06:55:59;94172.91;;;12.88;53.03
13414;BME280;6778;48.136;11.386;2023-04-01T06:59:05;94180.59;;;13.15;52.73
13414;BME280;6778;48.136;11.386;2023-04-01T07:01:42;94173.44;;;13.05;52.59
13414;BME280;6778;48.136;11.386;2023-04-01T07:04:22;94177.94;;;13.09;52.49
13414;BME280;6778;48.136;11.386;2023-04-01T07:06:59;94187.69;;;13.14;52.49
13414;BME280;6778;48.136;11.386;2023-04-01T07:09:34;94177.66;;;13.11;52.36
13414;BME280;6778;48.136;11.386;2023-04-01T07:12:36;94171.09;;;13.19;51.85
13414;BME280;6778;48.136;11.386;2023-04-01T07:15:38;94188.00;;;13.53;51.73
13414;BME280;6778;48.136;11.386;2023-04-01T07:18:15;94185.13;;;13.96;50.39
13414;BME280;6778;48.136;11.386;2023-04-01T07:20:51;94185.09;;;14.16;49.81
13414;BME280;6778;48.136;11.386;2023-04-01T07:23:27;94179.75;;;14.52;49.37
13414;BME280;6778;48.136;11.386;2023-04-01T07:26:16;94186.03;;;14.61;48.68
13414;BME280;6778;48.136;11.386;2023-04-01T07:29:08;94181.53;;;15.16;48.79
13414;BME280;6778;48.136;11.386;2023-04-01T07:32:08;94181.81;;;15.14;47.26
13414;BME280;6778;48.136;11.386;2023-04-01T07:34:51;94176.41;;;15.40;47.33
13414;BME280;6778;48.136;11.386;2023-04-01T07:37:37;94185.47;;;15.23;46.57
13414;BME280;6778;48.136;11.386;2023-04-01T07:40:21;94179.94;;;15.25;46.75
13414;BME280;6778;48.136;11.386;2023-04-01T07:43:09;94193.53;;;14.98;46.80
13414;BME280;6778;48.136;11.386;2023-04-01T07:46:06;94191.00;;;14.72;46.98
13414;BME280;6778;48.136;11.386;2023-04-01T07:48:50;94196.84;;;14.59;47.19
13414;BME280;6778;48.136;11.386;2023-04-01T07:51:32;94191.59;;;14.49;47.20
13414;BME280;6778;48.136;11.386;2023-04-01T07:54:16;94192.66;;;14.43;47.72
13414;BME280;6778;48.136;11.386;2023-04-01T07:56:56;94204.28;;;14.27;47.88
13414;BME280;6778;48.136;11.386;2023-04-01T07:59:55;94194.81;;;14.26;48.63
13414;BME280;6778;48.136;11.386;2023-04-01T08:03:06;94187.44;;;14.23;48.92
13414;BME280;6778;48.136;11.386;2023-04-01T08:05:53;94186.94;;;14.10;49.11
13414;BME280;6778;48.136;11.386;2023-04-01T08:08:38;94194.28;;;14.13;49.22
13414;BME280;6778;48.136;11.386;2023-04-01T08:11:46;94192.13;;;14.51;50.39
13414;BME280;6778;48.136;11.386;2023-04-01T08:14:56;94181.38;;;14.97;49.47
13414;BME280;6778;48.136;11.386;2023-04-01T08:18:06;94188.56;;;14.91;47.60
13414;BME280;6778;48.136;11.386;2023-04-01T08:20:46;94187.81;;;14.75;46.95
13414;BME280;6778;48.136;11.386;2023-04-01T08:23:24;94184.06;;;14.92;46.97
13414;BME280;6778;48.136;11.386;2023-04-01T08:26:02;94167.75;;;14.85;46.32
13414;BME280;6778;48.136;11.386;2023-04-01T08:28:49;94192.69;;;15.02;46.21
13414;BME280;6778;48.136;11.386;2023-04-01T08:31:31;94185.13;;;14.91;45.92
13414;BME280;6778;48.136;11.386;2023-04-01T08:34:11;94179.88;;;14.81;46.55
13414;BME280;6778;48.136;11.386;2023-04-01T08:36:51;94181.47;;;14.82;46.47
13414;BME280;6778;48.136;11.386;2023-04-01T08:39:29;94184.56;;;14.99;46.51
13414;BME280;6778;48.136;11.386;2023-04-01T08:42:30;94181.34;;;15.07;46.28
13414;BME280;6778;48.136;11.386;2023-04-01T08:45:27;94164.69;;;15.51;45.97
13414;BME280;6778;48.136;11.386;2023-04-01T08:48:20;94175.50;;;16.71;43.08
13414;BME280;6778;48.136;11.386;2023-04-01T08:54:34;94168.34;;;16.47;42.29
13414;BME280;6778;48.136;11.386;2023-04-01T08:57:19;94172.59;;;16.19;42.69
13414;BME280;6778;48.136;11.386;2023-04-01T09:00:31;94173.09;;;16.21;43.10
13414;BME280;6778;48.136;11.386;2023-04-01T09:03:41;94160.31;;;17.38;41.89
13414;BME280;6778;48.136;11.386;2023-04-01T09:06:33;94165.25;;;18.56;39.92
13414;BME280;6778;48.136;11.386;2023-04-01T09:09:29;94159.06;;;18.74;38.10
13414;BME280;6778;48.136;11.386;2023-04-01T09:12:26;94159.75;;;18.52;38.78
13414;BME280;6778;48.136;11.386;2023-04-01T09:15:18;94138.63;;;17.87;39.67
13414;BME280;6778;48.136;11.386;2023-04-01T09:18:09;94155.53;;;17.21;39.70
13414;BME280;6778;48.136;11.386;2023-04-01T09:21:03;94161.16;;;16.77;41.18
13414;BME280;6778;48.136;11.386;2023-04-01T09:24:02;94165.38;;;16.54;41.62
13414;BME280;6778;48.136;11.386;2023-04-01T09:26:58;94166.03;;;16.88;41.59
13414;BME280;6778;48.136;11.386;2023-04-01T09:29:54;94154.25;;;17.18;41.20
13414;BME280;6778;48.136;11.386;2023-04-01T09:32:45;94149.72;;;17.19;41.01
13414;BME280;6778;48.136;11.386;2023-04-01T09:35:39;94146.41;;;17.65;40.18
13414;BME280;6778;48.136;11.386;2023-04-01T09:38:21;94139.81;;;18.82;38.62
13414;BME280;6778;48.136;11.386;2023-04-01T09:40:56;94142.31;;;19.74;36.88
13414;BME280;6778;48.136;11.386;2023-04-01T09:43:58;94146.06;;;19.36;36.78
13414;BME280;6778;48.136;11.386;2023-04-01T09:47:01;94134.78;;;19.67;36.57
13414;BME280;6778;48.136;11.386;2023-04-01T09:50:00;94137.91;;;19.69;36.13
13414;BME280;6778;48.136;11.386;2023-04-01T09:52:55;94132.41;;;19.07;36.69
13414;BME280;6778;48.136;11.386;2023-04-01T09:56:01;94141.47;;;18.65;36.67
13414;BME280;6778;48.136;11.386;2023-04-01T09:59:13;94125.25;;;18.11;38.41
13414;BME280;6778;48.136;11.386;2023-04-01T10:09:07;94130.97;;;17.53;39.54
13414;BME280;6778;48.136;11.386;2023-04-01T10:12:16;94136.72;;;17.41;39.98
13414;BME280;6778;48.136;11.386;2023-04-01T10:15:33;94142.50;;;17.43;39.81
13414;BME280;6778;48.136;11.386;2023-04-01T10:18:32;94133.34;;;17.17;40.51
13414;BME280;6778;48.136;11.386;2023-04-01T10:24:36;94135.28;;;16.92;41.24
13414;BME280;6778;48.136;11.386;2023-04-01T10:30:50;94145.97;;;16.40;41.70
13414;BME280;6778;48.136;11.386;2023-04-01T10:34:01;94137.72;;;16.17;42.30
13414;BME280;6778;48.136;11.386;2023-04-01T10:36:47;94158.28;;;15.96;43.17
13414;BME280;6778;48.136;11.386;2023-04-01T10:39:58;94148.72;;;15.71;43.95
13414;BME280;6778;48.136;11.386;2023-04-01T10:43:34;94149.41;;;15.48;45.21
13414;BME280;6778;48.136;11.386;2023-04-01T10:46:35;94152.22;;;15.22;45.69
13414;BME280;6778;48.136;11.386;2023-04-01T10:49:37;94164.47;;;15.03;46.26
13414;BME280;6778;48.136;11.386;2023-04-01T10:52:38;94147.47;;;14.75;48.09
13414;BME280;6778;48.136;11.386;2023-04-01T10:55:59;94168.94;;;14.48;48.99
13414;BME280;6778;48.136;11.386;2023-04-01T11:06:48;94169.31;;;13.90;53.66
13414;BME280;6778;48.136;11.386;2023-04-01T11:13:22;94172.75;;;13.91;53.50
13414;BME280;6778;48.136;11.386;2023-04-01T11:16:26;94170.88;;;13.81;53.52
13414;BME280;6778;48.136;11.386;2023-04-01T11:25:53;94167.75;;;13.84;52.90
13414;BME280;6778;48.136;11.386;2023-04-01T11:29:18;94183.25;;;13.86;53.09
13414;BME280;6778;48.136;11.386;2023-04-01T11:32:07;94182.75;;;13.89;54.12
13414;BME280;6778;48.136;11.386;2023-04-01T11:35:14;94192.75;;;13.82;54.20
13414;BME280;6778;48.136;11.386;2023-04-01T11:38:00;94200.91;;;13.70;54.35
13414;BME280;6778;48.136;11.386;2023-04-01T11:41:04;94198.03;;;13.56;55.21
13414;BME280;6778;48.136;11.386;2023-04-01T11:44:14;94190.38;;;13.34;55.62
13414;BME280;6778;48.136;11.386;2023-04-01T11:50:19;94186.31;;;12.96;57.26
13414;BME280;6778;48.136;11.386;2023-04-01T11:53:08;94191.53;;;12.81;57.97
13414;BME280;6778;48.136;11.386;2023-04-01T11:55:53;94184.13;;;12.68;58.54
13414;BME280;6778;48.136;11.386;2023-04-01T11:58:46;94188.00;;;12.55;59.23
13414;BME280;6778;48.136;11.386;2023-04-01T12:01:47;94197.41;;;12.46;60.13
13414;BME280;6778;48.136;11.386;2023-04-01T12:07:54;94195.47;;;12.26;60.72
13414;BME280;6778;48.136;11.386;2023-04-01T12:10:36;94179.97;;;12.19;61.27
13414;BME280;6778;48.136;11.386;2023-04-01T12:13:19;94197.75;;;12.12;61.59
13414;BME280;6778;48.136;11.386;2023-04-01T12:16:13;94194.31;;;12.07;61.73
13414;BME280;6778;48.136;11.386;2023-04-01T12:18:57;94190.56;;;11.97;61.69
13414;BME280;6778;48.136;11.386;2023-04-01T12:21:36;94184.50;;;11.92;61.92
13414;BME280;6778;48.136;11.386;2023-04-01T12:24:26;94194.97;;;11.87;61.92
13414;BME280;6778;48.136;11.386;2023-04-01T12:27:13;94188.91;;;11.81;61.96
13414;BME280;6778;48.136;11.386;2023-04-01T12:36:35;94193.97;;;11.61;61.72
13414;BME280;6778;48.136;11.386;2023-04-01T12:42:34;94197.84;;;11.53;62.46
13414;BME280;6778;48.136;11.386;2023-04-01T12:45:27;94195.69;;;11.50;62.73
13414;BME280;6778;48.136;11.386;2023-04-01T12:48:43;94196.94;;;11.42;62.71
13414;BME280;6778;48.136;11.386;2023-04-01T12:51:41;94200.09;;;11.44;62.40
13414;BME280;6778;48.136;11.386;2023-04-01T12:54:44;94200.31;;;11.38;62.42
13414;BME280;6778;48.136;11.386;2023-04-01T12:57:55;94199.00;;;11.35;62.46
13414;BME280;6778;48.136;11.386;2023-04-01T13:00:46;94205.47;;;11.28;62.71
13414;BME280;6778;48.136;11.386;2023-04-01T13:03:38;94204.19;;;11.30;63.40
13414;BME280;6778;48.136;11.386;2023-04-01T13:06:39;94203.09;;;11.26;63.79
13414;BME280;6778;48.136;11.386;2023-04-01T13:09:24;94206.00;;;11.25;64.32
13414;BME280;6778;48.136;11.386;2023-04-01T13:12:19;94206.00;;;11.25;64.86
13414;BME280;6778;48.136;11.386;2023-04-01T13:15:28;94210.13;;;11.20;65.33
13414;BME280;6778;48.136;11.386;2023-04-01T13:18:17;94205.38;;;11.17;65.68
13414;BME280;6778;48.136;11.386;2023-04-01T13:21:00;94217.69;;;11.17;65.98
13414;BME280;6778;48.136;11.386;2023-04-01T13:23:49;94214.78;;;11.13;66.56
13414;BME280;6778;48.136;11.386;2023-04-01T13:26:28;94220.28;;;11.12;67.14
13414;BME280;6778;48.136;11.386;2023-04-01T13:29:07;94230.97;;;11.10;67.97
13414;BME280;6778;48.136;11.386;2023-04-01T13:31:56;94235.16;;;11.06;68.55
13414;BME280;6778;48.136;11.386;2023-04-01T13:34:51;94237.50;;;11.08;69.07
13414;BME280;6778;48.136;11.386;2023-04-01T13:37:42;94223.53;;;11.24;69.57
13414;BME280;6778;48.136;11.386;2023-04-01T13:40:33;94213.19;;;11.39;69.71
13414;BME280;6778;48.136;11.386;2023-04-01T13:43:24;94215.09;;;11.49;69.08
13414;BME280;6778;48.136;11.386;2023-04-01T13:46:09;94216.47;;;11.57;68.26
13414;BME280;6778;48.136;11.386;2023-04-01T13:49:12;94223.88;;;11.65;67.80
13414;BME280;6778;48.136;11.386;2023-04-01T13:55:05;94218.59;;;11.87;67.36
13414;BME280;6778;48.136;11.386;2023-04-01T13:58:04;94214.19;;;11.92;66.84
13414;BME280;6778;48.136;11.386;2023-04-01T14:00:56;94209.78;;;12.03;66.94
13414;BME280;6778;48.136;11.386;2023-04-01T14:03:42;94217.16;;;12.06;66.28
13414;BME280;6778;48.136;11.386;2023-04-01T14:06:29;94223.22;;;12.12;65.99
13414;BME280;6778;48.136;11.386;2023-04-01T14:09:20;94212.75;;;12.17;65.80
13414;BME280;6778;48.136;11.386;2023-04-01T14:12:04;94207.75;;;12.15;65.09
13414;BME280;6778;48.136;11.386;2023-04-01T14:14:56;94210.16;;;12.22;65.02
13414;BME280;6778;48.136;11.386;2023-04-01T14:17:52;94204.38;;;12.25;64.42
13414;BME280;6778;48.136;11.386;2023-04-01T14:20:30;94207.59;;;12.32;64.53
13414;BME280;6778;48.136;11.386;2023-04-01T14:23:20;94220.75;;;12.37;64.53
13414;BME280;6778;48.136;11.386;2023-04-01T14:26:22;94215.00;;;12.40;64.00
13414;BME280;6778;48.136;11.386;2023-04-01T14:29:07;94222.09;;;12.40;64.29
13414;BME280;6778;48.136;11.386;2023-04-01T14:31:55;94224.47;;;12.41;64.13
13414;BME280;6778;48.136;11.386;2023-04-01T14:34:43;94216.31;;;12.43;64.43
13414;BME280;6778;48.136;11.386;2023-04-01T14:37:26;94217.38;;;12.42;64.14
13414;BME280;6778;48.136;11.386;2023-04-01T14:40:24;94220.75;;;12.37;65.00
13414;BME280;6778;48.136;11.386;2023-04-01T14:43:14;94228.09;;;12.35;65.19
13414;BME280;6778;48.136;11.386;2023-04-01T14:48:57;94227.56;;;12.33;65.34
13414;BME280;6778;48.136;11.386;2023-04-01T14:51:32;94236.69;;;12.25;65.53
13414;BME280;6778;48.136;11.386;2023-04-01T14:54:12;94229.03;;;12.19;65.99
13414;BME280;6778;48.136;11.386;2023-04-01T14:56:51;94227.22;;;12.19;65.87
13414;BME280;6778;48.136;11.386;2023-04-01T14:59:33;94235.88;;;12.20;65.97
13414;BME280;6778;48.136;11.386;2023-04-01T15:02:29;94231.13;;;12.17;65.57
13414;BME280;6778;48.136;11.386;2023-04-01T15:05:16;94227.22;;;12.19;65.34
13414;BME280;6778;48.136;11.386;2023-04-01T15:08:03;94226.13;;;12.15;64.51
13414;BME280;6778;48.136;11.386;2023-04-01T15:10:49;94226.31;;;12.03;64.32
13414;BME280;6778;48.136;11.386;2023-04-01T15:13:53;94231.78;;;11.97;64.55
13414;BME280;6778;48.136;11.386;2023-04-01T15:16:34;94239.13;;;11.95;64.33
13414;BME280;6778;48.136;11.386;2023-04-01T15:19:17;94222.53;;;11.89;63.63
13414;BME280;6778;48.136;11.386;2023-04-01T15:22:21;94239.03;;;11.85;62.75
13414;BME280;6778;48.136;11.386;2023-04-01T15:25:16;94233.50;;;11.81;62.70
13414;BME280;6778;48.136;11.386;2023-04-01T15:27:55;94240.03;;;11.79;62.10
13414;BME280;6778;48.136;11.386;2023-04-01T15:30:33;94242.88;;;11.77;62.65
13414;BME280;6778;48.136;11.386;2023-04-01T15:36:10;94248.91;;;11.72;62.93
13414;BME280;6778;48.136;11.386;2023-04-01T15:38:53;94255.94;;;11.67;63.30